sensor_id;sensor_type;location;lat;lon;timestamp;P1;durP1;ratioP1;P2;durP2;ratioP2
48014;SDS011;33780;51.034;7.120;2022-07-29T00:02:00;2.85;;;1.00;;
48014;SDS011;33780;51.034;7.120;2022-07-29T00:04:25;1.55;;;0.88;;
48014;SDS011;33780;51.034;7.120;2022-07-29T00:06:50;2.72;;;0.70;;
48014;SDS011;33780;51.034;7.120;2022-07-29T00:09:16;1.75;;;0.90;;
48014;SDS011;33780;51.034;7.120;2022-07-29T00:11:41;2.53;;;1.10;;
48014;SDS011;33780;51.034;7.120;2022-07-29T00:14:36;2.00;;;0.75;;
48014;SDS011;33780;51.034;7.120;2022-07-29T00:17:16;2.70;;;0.73;;
48014;SDS011;33780;51.034;7.120;2022-07-29T00:19:44;1.58;;;0.80;;
48014;SDS011;33780;51.034;7.120;2022-07-29T00:22:09;3.33;;;1.08;;
48014;SDS011;33780;51.034;7.120;2022-07-29T00:24:35;2.40;;;1.10;;
48014;SDS011;33780;51.034;7.120;2022-07-29T00:27:00;1.63;;;0.80;;
48014;SDS011;33780;51.034;7.120;2022-07-29T00:29:26;3.10;;;0.90;;
48014;SDS011;33780;51.034;7.120;2022-07-29T00:31:51;2.25;;;0.98;;
48014;SDS011;33780;51.034;7.120;2022-07-29T00:34:22;2.67;;;1.05;;
48014;SDS011;33780;51.034;7.120;2022-07-29T00:37:06;1.85;;;0.90;;
48014;SDS011;33780;51.034;7.120;2022-07-29T00:39:31;2.88;;;0.90;;
48014;SDS011;33780;51.034;7.120;2022-07-29T00:41:56;2.30;;;1.00;;
48014;SDS011;33780;51.034;7.120;2022-07-29T00:44:24;2.30;;;0.95;;
48014;SDS011;33780;51.034;7.120;2022-07-29T00:46:49;2.05;;;0.93;;
48014;SDS011;33780;51.034;7.120;2022-07-29T00:49:15;3.25;;;0.90;;
48014;SDS011;33780;51.034;7.120;2022-07-29T00:51:40;3.00;;;1.02;;
48014;SDS011;33780;51.034;7.120;2022-07-29T00:54:08;2.08;;;0.82;;
48014;SDS011;33780;51.034;7.120;2022-07-29T00:56:34;2.80;;;1.02;;
48014;SDS011;33780;51.034;7.120;2022-07-29T00:58:59;3.63;;;0.90;;
48014;SDS011;33780;51.034;7.120;2022-07-29T01:01:25;2.97;;;1.00;;
48014;SDS011;33780;51.034;7.120;2022-07-29T01:03:51;4.10;;;1.08;;
48014;SDS011;33780;51.034;7.120;2022-07-29T01:06:17;2.03;;;0.90;;
48014;SDS011;33780;51.034;7.120;2022-07-29T01:08:44;2.60;;;0.90;;
48014;SDS011;33780;51.034;7.120;2022-07-29T01:11:19;2.55;;;1.13;;
48014;SDS011;33780;51.034;7.120;2022-07-29T01:14:55;2.30;;;0.80;;
48014;SDS011;33780;51.034;7.120;2022-07-29T01:21:34;2.30;;;0.70;;
48014;SDS011;33780;51.034;7.120;2022-07-29T01:23:59;1.80;;;1.00;;
48014;SDS011;33780;51.034;7.120;2022-07-29T01:26:57;1.60;;;1.00;;
48014;SDS011;33780;51.034;7.120;2022-07-29T01:29:50;3.45;;;1.10;;
48014;SDS011;33780;51.034;7.120;2022-07-29T01:32:21;2.47;;;1.10;;
48014;SDS011;33780;51.034;7.120;2022-07-29T01:37:31;1.88;;;0.90;;
48014;SDS011;33780;51.034;7.120;2022-07-29T01:43:09;3.03;;;1.00;;
48014;SDS011;33780;51.034;7.120;2022-07-29T01:45:43;2.65;;;1.08;;
48014;SDS011;33780;51.034;7.120;2022-07-29T01:48:38;2.35;;;0.77;;
48014;SDS011;33780;51.034;7.120;2022-07-29T01:51:22;3.58;;;1.05;;
48014;SDS011;33780;51.034;7.120;2022-07-29T01:57:19;4.97;;;1.00;;
48014;SDS011;33780;51.034;7.120;2022-07-29T01:59:57;1.60;;;0.90;;
48014;SDS011;33780;51.034;7.120;2022-07-29T02:02:59;2.95;;;0.90;;
48014;SDS011;33780;51.034;7.120;2022-07-29T02:05:28;2.47;;;1.08;;
48014;SDS011;33780;51.034;7.120;2022-07-29T02:08:01;3.43;;;1.43;;
48014;SDS011;33780;51.034;7.120;2022-07-29T02:10:32;3.10;;;1.10;;
48014;SDS011;33780;51.034;7.120;2022-07-29T02:13:13;6.05;;;1.15;;
48014;SDS011;33780;51.034;7.120;2022-07-29T02:15:42;3.17;;;1.00;;
48014;SDS011;33780;51.034;7.120;2022-07-29T02:18:18;4.25;;;1.10;;
48014;SDS011;33780;51.034;7.120;2022-07-29T02:20:48;2.85;;;0.90;;
48014;SDS011;33780;51.034;7.120;2022-07-29T02:23:24;1.67;;;0.73;;
48014;SDS011;33780;51.034;7.120;2022-07-29T02:25:55;3.08;;;0.77;;
48014;SDS011;33780;51.034;7.120;2022-07-29T02:28:23;4.18;;;1.00;;
48014;SDS011;33780;51.034;7.120;2022-07-29T02:30:55;2.78;;;1.10;;
48014;SDS011;33780;51.034;7.120;2022-07-29T02:33:24;2.42;;;0.98;;
48014;SDS011;33780;51.034;7.120;2022-07-29T02:35:50;3.50;;;1.17;;
48014;SDS011;33780;51.034;7.120;2022-07-29T02:38:19;1.65;;;0.90;;
48014;SDS011;33780;51.034;7.120;2022-07-29T02:41:12;2.58;;;0.98;;
48014;SDS011;33780;51.034;7.120;2022-07-29T02:43:48;3.55;;;1.10;;
48014;SDS011;33780;51.034;7.120;2022-07-29T02:46:20;2.67;;;0.90;;
48014;SDS011;33780;51.034;7.120;2022-07-29T02:49:37;1.63;;;0.90;;
48014;SDS011;33780;51.034;7.120;2022-07-29T02:51:50;3.25;;;1.10;;
48014;SDS011;33780;51.034;7.120;2022-07-29T02:54:22;4.07;;;1.00;;
48014;SDS011;33780;51.034;7.120;2022-07-29T02:56:57;1.77;;;1.08;;
48014;SDS011;33780;51.034;7.120;2022-07-29T02:59:26;3.03;;;1.10;;
48014;SDS011;33780;51.034;7.120;2022-07-29T03:01:53;2.22;;;1.00;;
48014;SDS011;33780;51.034;7.120;2022-07-29T03:04:23;2.65;;;1.10;;
48014;SDS011;33780;51.034;7.120;2022-07-29T03:06:50;2.92;;;1.20;;
48014;SDS011;33780;51.034;7.120;2022-07-29T03:09:17;3.45;;;1.08;;
48014;SDS011;33780;51.034;7.120;2022-07-29T03:11:43;2.83;;;1.00;;
48014;SDS011;33780;51.034;7.120;2022-07-29T03:14:09;1.98;;;1.02;;
48014;SDS011;33780;51.034;7.120;2022-07-29T03:16:35;2.65;;;1.05;;
48014;SDS011;33780;51.034;7.120;2022-07-29T03:19:01;1.90;;;1.23;;
48014;SDS011;33780;51.034;7.120;2022-07-29T03:21:29;1.65;;;0.90;;
48014;SDS011;33780;51.034;7.120;2022-07-29T03:23:55;2.67;;;1.10;;
48014;SDS011;33780;51.034;7.120;2022-07-29T03:26:20;1.83;;;0.90;;
48014;SDS011;33780;51.034;7.120;2022-07-29T03:28:45;3.65;;;1.10;;
48014;SDS011;33780;51.034;7.120;2022-07-29T03:31:14;1.40;;;0.90;;
48014;SDS011;33780;51.034;7.120;2022-07-29T03:33:39;2.25;;;0.90;;
48014;SDS011;33780;51.034;7.120;2022-07-29T03:36:04;3.47;;;0.98;;
48014;SDS011;33780;51.034;7.120;2022-07-29T03:38:30;2.28;;;1.13;;
48014;SDS011;33780;51.034;7.120;2022-07-29T03:41:00;2.97;;;1.02;;
48014;SDS011;33780;51.034;7.120;2022-07-29T03:43:29;2.08;;;1.20;;
48014;SDS011;33780;51.034;7.120;2022-07-29T03:45:59;1.77;;;0.90;;
48014;SDS011;33780;51.034;7.120;2022-07-29T03:48:26;3.13;;;0.88;;
48014;SDS011;33780;51.034;7.120;2022-07-29T03:50:55;3.90;;;1.20;;
48014;SDS011;33780;51.034;7.120;2022-07-29T03:53:21;4.18;;;1.00;;
48014;SDS011;33780;51.034;7.120;2022-07-29T03:55:50;3.45;;;0.85;;
48014;SDS011;33780;51.034;7.120;2022-07-29T03:58:18;2.47;;;1.10;;
48014;SDS011;33780;51.034;7.120;2022-07-29T04:00:44;2.83;;;1.30;;
48014;SDS011;33780;51.034;7.120;2022-07-29T04:03:11;1.90;;;1.00;;
48014;SDS011;33780;51.034;7.120;2022-07-29T04:05:37;2.15;;;1.00;;
48014;SDS011;33780;51.034;7.120;2022-07-29T04:08:02;3.50;;;1.30;;
48014;SDS011;33780;51.034;7.120;2022-07-29T04:10:28;2.63;;;1.20;;
48014;SDS011;33780;51.034;7.120;2022-07-29T04:12:53;1.83;;;1.00;;
48014;SDS011;33780;51.034;7.120;2022-07-29T04:15:19;3.85;;;0.98;;
48014;SDS011;33780;51.034;7.120;2022-07-29T04:17:44;4.28;;;1.20;;
48014;SDS011;33780;51.034;7.120;2022-07-29T04:20:10;3.45;;;1.10;;
48014;SDS011;33780;51.034;7.120;2022-07-29T04:22:38;1.83;;;0.90;;
48014;SDS011;33780;51.034;7.120;2022-07-29T04:25:04;4.47;;;0.93;;
48014;SDS011;33780;51.034;7.120;2022-07-29T04:27:29;3.72;;;1.20;;
48014;SDS011;33780;51.034;7.120;2022-07-29T04:29:54;2.83;;;1.17;;
48014;SDS011;33780;51.034;7.120;2022-07-29T04:32:20;4.18;;;1.13;;
48014;SDS011;33780;51.034;7.120;2022-07-29T04:34:45;2.83;;;1.25;;
48014;SDS011;33780;51.034;7.120;2022-07-29T04:37:11;3.83;;;1.05;;
48014;SDS011;33780;51.034;7.120;2022-07-29T04:39:36;1.95;;;0.93;;
48014;SDS011;33780;51.034;7.120;2022-07-29T04:42:02;3.60;;;1.27;;
48014;SDS011;33780;51.034;7.120;2022-07-29T04:44:27;5.18;;;1.20;;
48014;SDS011;33780;51.034;7.120;2022-07-29T04:46:53;2.00;;;1.20;;
48014;SDS011;33780;51.034;7.120;2022-07-29T04:49:18;2.60;;;1.00;;
48014;SDS011;33780;51.034;7.120;2022-07-29T04:51:44;4.03;;;1.00;;
48014;SDS011;33780;51.034;7.120;2022-07-29T04:54:09;4.13;;;1.02;;
48014;SDS011;33780;51.034;7.120;2022-07-29T04:56:34;2.65;;;1.08;;
48014;SDS011;33780;51.034;7.120;2022-07-29T04:58:59;2.83;;;1.10;;
48014;SDS011;33780;51.034;7.120;2022-07-29T05:01:25;3.30;;;0.90;;
48014;SDS011;33780;51.034;7.120;2022-07-29T05:03:50;1.70;;;1.10;;
48014;SDS011;33780;51.034;7.120;2022-07-29T05:06:15;4.10;;;1.25;;
48014;SDS011;33780;51.034;7.120;2022-07-29T05:08:41;3.08;;;1.08;;
48014;SDS011;33780;51.034;7.120;2022-07-29T05:11:06;3.03;;;1.10;;
48014;SDS011;33780;51.034;7.120;2022-07-29T05:13:31;4.90;;;1.05;;
48014;SDS011;33780;51.034;7.120;2022-07-29T05:15:57;3.13;;;1.10;;
48014;SDS011;33780;51.034;7.120;2022-07-29T05:18:23;3.00;;;1.00;;
48014;SDS011;33780;51.034;7.120;2022-07-29T05:20:49;3.47;;;1.20;;
48014;SDS011;33780;51.034;7.120;2022-07-29T05:23:14;3.38;;;1.20;;
48014;SDS011;33780;51.034;7.120;2022-07-29T05:25:40;3.10;;;1.17;;
48014;SDS011;33780;51.034;7.120;2022-07-29T05:28:05;5.10;;;1.15;;
48014;SDS011;33780;51.034;7.120;2022-07-29T05:30:31;2.85;;;1.20;;
48014;SDS011;33780;51.034;7.120;2022-07-29T05:32:56;3.00;;;1.30;;
48014;SDS011;33780;51.034;7.120;2022-07-29T05:35:21;2.75;;;1.10;;
48014;SDS011;33780;51.034;7.120;2022-07-29T05:37:47;2.42;;;1.10;;
48014;SDS011;33780;51.034;7.120;2022-07-29T05:40:12;3.25;;;1.30;;
48014;SDS011;33780;51.034;7.120;2022-07-29T05:42:38;3.55;;;0.93;;
48014;SDS011;33780;51.034;7.120;2022-07-29T05:45:03;2.58;;;1.17;;
48014;SDS011;33780;51.034;7.120;2022-07-29T05:47:29;2.40;;;1.20;;
48014;SDS011;33780;51.034;7.120;2022-07-29T05:49:55;2.28;;;1.10;;
48014;SDS011;33780;51.034;7.120;2022-07-29T05:52:20;3.15;;;1.25;;
48014;SDS011;33780;51.034;7.120;2022-07-29T05:54:46;1.70;;;0.85;;
48014;SDS011;33780;51.034;7.120;2022-07-29T05:57:18;4.47;;;1.00;;
48014;SDS011;33780;51.034;7.120;2022-07-29T05:59:45;4.20;;;1.17;;
48014;SDS011;33780;51.034;7.120;2022-07-29T06:02:11;2.65;;;0.93;;
48014;SDS011;33780;51.034;7.120;2022-07-29T06:04:36;2.28;;;1.00;;
48014;SDS011;33780;51.034;7.120;2022-07-29T06:07:04;4.53;;;1.20;;
48014;SDS011;33780;51.034;7.120;2022-07-29T06:09:31;2.13;;;0.95;;
48014;SDS011;33780;51.034;7.120;2022-07-29T06:11:56;2.15;;;1.05;;
48014;SDS011;33780;51.034;7.120;2022-07-29T06:14:24;2.72;;;1.08;;
48014;SDS011;33780;51.034;7.120;2022-07-29T06:16:50;4.30;;;1.42;;
48014;SDS011;33780;51.034;7.120;2022-07-29T06:19:15;6.18;;;1.17;;
48014;SDS011;33780;51.034;7.120;2022-07-29T06:21:41;2.67;;;1.00;;
48014;SDS011;33780;51.034;7.120;2022-07-29T06:24:07;3.38;;;1.10;;
48014;SDS011;33780;51.034;7.120;2022-07-29T06:26:33;2.72;;;1.20;;
48014;SDS011;33780;51.034;7.120;2022-07-29T06:28:58;3.28;;;1.02;;
48014;SDS011;33780;51.034;7.120;2022-07-29T06:31:23;3.58;;;1.23;;
48014;SDS011;33780;51.034;7.120;2022-07-29T06:33:49;2.08;;;1.10;;
48014;SDS011;33780;51.034;7.120;2022-07-29T06:36:14;2.25;;;1.13;;
48014;SDS011;33780;51.034;7.120;2022-07-29T06:38:40;3.78;;;1.25;;
48014;SDS011;33780;51.034;7.120;2022-07-29T06:41:05;1.67;;;0.88;;
48014;SDS011;33780;51.034;7.120;2022-07-29T06:43:38;2.95;;;1.02;;
48014;SDS011;33780;51.034;7.120;2022-07-29T06:46:06;3.30;;;1.00;;
48014;SDS011;33780;51.034;7.120;2022-07-29T06:48:34;5.25;;;1.20;;
48014;SDS011;33780;51.034;7.120;2022-07-29T06:51:01;2.00;;;1.10;;
48014;SDS011;33780;51.034;7.120;2022-07-29T06:53:26;4.13;;;1.10;;
48014;SDS011;33780;51.034;7.120;2022-07-29T06:55:52;2.33;;;1.10;;
48014;SDS011;33780;51.034;7.120;2022-07-29T06:58:17;2.53;;;1.25;;
48014;SDS011;33780;51.034;7.120;2022-07-29T07:00:45;2.70;;;1.23;;
48014;SDS011;33780;51.034;7.120;2022-07-29T07:03:11;2.25;;;1.02;;
48014;SDS011;33780;51.034;7.120;2022-07-29T07:05:37;3.05;;;1.10;;
48014;SDS011;33780;51.034;7.120;2022-07-29T07:08:07;4.10;;;1.30;;
48014;SDS011;33780;51.034;7.120;2022-07-29T07:10:33;3.70;;;1.25;;
48014;SDS011;33780;51.034;7.120;2022-07-29T07:12:59;2.58;;;1.10;;
48014;SDS011;33780;51.034;7.120;2022-07-29T07:15:25;1.95;;;1.00;;
48014;SDS011;33780;51.034;7.120;2022-07-29T07:17:52;4.80;;;1.10;;
48014;SDS011;33780;51.034;7.120;2022-07-29T07:20:17;2.25;;;1.10;;
48014;SDS011;33780;51.034;7.120;2022-07-29T07:22:42;2.58;;;1.10;;
48014;SDS011;33780;51.034;7.120;2022-07-29T07:25:08;2.55;;;1.10;;
48014;SDS011;33780;51.034;7.120;2022-07-29T07:27:36;3.50;;;1.10;;
48014;SDS011;33780;51.034;7.120;2022-07-29T07:30:03;2.47;;;1.10;;
48014;SDS011;33780;51.034;7.120;2022-07-29T07:32:33;2.05;;;1.00;;
48014;SDS011;33780;51.034;7.120;2022-07-29T07:34:59;1.58;;;0.80;;
48014;SDS011;33780;51.034;7.120;2022-07-29T07:37:25;2.53;;;1.17;;
48014;SDS011;33780;51.034;7.120;2022-07-29T07:39:53;2.53;;;1.15;;
48014;SDS011;33780;51.034;7.120;2022-07-29T07:42:19;2.30;;;0.90;;
48014;SDS011;33780;51.034;7.120;2022-07-29T07:44:44;2.58;;;1.05;;
48014;SDS011;33780;51.034;7.120;2022-07-29T07:47:13;2.25;;;1.20;;
48014;SDS011;33780;51.034;7.120;2022-07-29T07:49:39;2.67;;;1.10;;
48014;SDS011;33780;51.034;7.120;2022-07-29T07:52:05;2.00;;;0.98;;
48014;SDS011;33780;51.034;7.120;2022-07-29T07:54:30;2.60;;;1.20;;
48014;SDS011;33780;51.034;7.120;2022-07-29T07:56:56;2.28;;;1.00;;
48014;SDS011;33780;51.034;7.120;2022-07-29T07:59:21;2.88;;;1.15;;
48014;SDS011;33780;51.034;7.120;2022-07-29T08:01:46;2.65;;;0.98;;
48014;SDS011;33780;51.034;7.120;2022-07-29T08:04:12;5.47;;;1.30;;
48014;SDS011;33780;51.034;7.120;2022-07-29T08:06:37;3.17;;;1.30;;
48014;SDS011;33780;51.034;7.120;2022-07-29T08:09:03;2.80;;;1.08;;
48014;SDS011;33780;51.034;7.120;2022-07-29T08:11:29;2.50;;;1.05;;
48014;SDS011;33780;51.034;7.120;2022-07-29T08:13:55;3.13;;;1.10;;
48014;SDS011;33780;51.034;7.120;2022-07-29T08:16:21;2.05;;;1.58;;
48014;SDS011;33780;51.034;7.120;2022-07-29T08:18:46;4.78;;;0.90;;
48014;SDS011;33780;51.034;7.120;2022-07-29T08:21:21;2.90;;;0.95;;
48014;SDS011;33780;51.034;7.120;2022-07-29T08:23:47;3.28;;;1.20;;
48014;SDS011;33780;51.034;7.120;2022-07-29T08:26:17;2.75;;;1.15;;
48014;SDS011;33780;51.034;7.120;2022-07-29T08:28:44;3.20;;;0.95;;
48014;SDS011;33780;51.034;7.120;2022-07-29T08:31:11;2.92;;;1.20;;
48014;SDS011;33780;51.034;7.120;2022-07-29T08:33:40;2.95;;;1.05;;
48014;SDS011;33780;51.034;7.120;2022-07-29T08:36:06;2.40;;;1.33;;
48014;SDS011;33780;51.034;7.120;2022-07-29T08:38:32;3.22;;;1.10;;
48014;SDS011;33780;51.034;7.120;2022-07-29T08:40:59;6.30;;;1.30;;
48014;SDS011;33780;51.034;7.120;2022-07-29T08:43:25;4.38;;;1.23;;
48014;SDS011;33780;51.034;7.120;2022-07-29T08:45:53;5.57;;;1.20;;
48014;SDS011;33780;51.034;7.120;2022-07-29T08:48:20;3.17;;;1.00;;
48014;SDS011;33780;51.034;7.120;2022-07-29T08:50:48;2.72;;;1.30;;
48014;SDS011;33780;51.034;7.120;2022-07-29T08:53:17;2.33;;;1.17;;
48014;SDS011;33780;51.034;7.120;2022-07-29T08:55:44;3.40;;;1.05;;
48014;SDS011;33780;51.034;7.120;2022-07-29T08:58:11;4.93;;;1.40;;
48014;SDS011;33780;51.034;7.120;2022-07-29T09:00:42;2.85;;;1.23;;
48014;SDS011;33780;51.034;7.120;2022-07-29T09:03:15;3.78;;;1.15;;
48014;SDS011;33780;51.034;7.120;2022-07-29T09:05:44;2.88;;;1.17;;
48014;SDS011;33780;51.034;7.120;2022-07-29T09:08:11;3.13;;;1.00;;
48014;SDS011;33780;51.034;7.120;2022-07-29T09:10:37;4.57;;;1.10;;
48014;SDS011;33780;51.034;7.120;2022-07-29T09:13:03;2.95;;;1.30;;
48014;SDS011;33780;51.034;7.120;2022-07-29T09:15:28;3.17;;;1.25;;
48014;SDS011;33780;51.034;7.120;2022-07-29T09:17:53;3.53;;;1.17;;
48014;SDS011;33780;51.034;7.120;2022-07-29T09:20:21;2.13;;;1.13;;
48014;SDS011;33780;51.034;7.120;2022-07-29T09:22:48;4.18;;;1.13;;
48014;SDS011;33780;51.034;7.120;2022-07-29T09:25:14;1.92;;;0.90;;
48014;SDS011;33780;51.034;7.120;2022-07-29T09:28:04;4.67;;;1.10;;
48014;SDS011;33780;51.034;7.120;2022-07-29T09:30:31;2.85;;;1.10;;
48014;SDS011;33780;51.034;7.120;2022-07-29T09:32:57;3.45;;;1.02;;
48014;SDS011;33780;51.034;7.120;2022-07-29T09:35:26;3.63;;;1.00;;
48014;SDS011;33780;51.034;7.120;2022-07-29T09:37:52;4.22;;;1.20;;
48014;SDS011;33780;51.034;7.120;2022-07-29T09:40:22;3.88;;;1.17;;
48014;SDS011;33780;51.034;7.120;2022-07-29T09:42:50;2.42;;;1.23;;
48014;SDS011;33780;51.034;7.120;2022-07-29T09:45:29;3.42;;;1.00;;
48014;SDS011;33780;51.034;7.120;2022-07-29T09:47:56;2.85;;;1.13;;
48014;SDS011;33780;51.034;7.120;2022-07-29T09:50:38;2.53;;;1.20;;
48014;SDS011;33780;51.034;7.120;2022-07-29T09:53:05;2.95;;;1.10;;
48014;SDS011;33780;51.034;7.120;2022-07-29T09:55:30;4.35;;;1.20;;
48014;SDS011;33780;51.034;7.120;2022-07-29T09:58:14;2.88;;;1.40;;
48014;SDS011;33780;51.034;7.120;2022-07-29T10:00:42;1.90;;;1.10;;
48014;SDS011;33780;51.034;7.120;2022-07-29T10:03:08;3.28;;;1.33;;
48014;SDS011;33780;51.034;7.120;2022-07-29T10:05:33;2.55;;;0.98;;
48014;SDS011;33780;51.034;7.120;2022-07-29T10:07:59;1.88;;;0.95;;
48014;SDS011;33780;51.034;7.120;2022-07-29T10:10:28;1.92;;;1.30;;
48014;SDS011;33780;51.034;7.120;2022-07-29T10:13:04;6.22;;;1.23;;
48014;SDS011;33780;51.034;7.120;2022-07-29T10:15:32;5.20;;;1.40;;
48014;SDS011;33780;51.034;7.120;2022-07-29T10:18:06;2.95;;;1.40;;
48014;SDS011;33780;51.034;7.120;2022-07-29T10:20:32;2.97;;;1.27;;
48014;SDS011;33780;51.034;7.120;2022-07-29T10:22:57;5.32;;;1.45;;
48014;SDS011;33780;51.034;7.120;2022-07-29T10:25:23;2.38;;;1.23;;
48014;SDS011;33780;51.034;7.120;2022-07-29T10:27:49;2.55;;;1.20;;
48014;SDS011;33780;51.034;7.120;2022-07-29T10:30:19;6.50;;;1.40;;
48014;SDS011;33780;51.034;7.120;2022-07-29T10:35:40;4.13;;;1.67;;
48014;SDS011;33780;51.034;7.120;2022-07-29T10:38:30;4.93;;;1.30;;
48014;SDS011;33780;51.034;7.120;2022-07-29T10:43:54;5.10;;;1.35;;
48014;SDS011;33780;51.034;7.120;2022-07-29T10:46:23;3.50;;;1.70;;
48014;SDS011;33780;51.034;7.120;2022-07-29T10:57:10;3.42;;;1.50;;
48014;SDS011;33780;51.034;7.120;2022-07-29T11:05:08;4.28;;;1.65;;
48014;SDS011;33780;51.034;7.120;2022-07-29T11:10:39;4.13;;;1.60;;
48014;SDS011;33780;51.034;7.120;2022-07-29T11:13:05;4.70;;;1.70;;
48014;SDS011;33780;51.034;7.120;2022-07-29T11:15:51;5.47;;;1.80;;
48014;SDS011;33780;51.034;7.120;2022-07-29T11:18:22;5.10;;;1.75;;
48014;SDS011;33780;51.034;7.120;2022-07-29T11:20:48;5.57;;;1.70;;
48014;SDS011;33780;51.034;7.120;2022-07-29T11:29:05;6.68;;;1.80;;
48014;SDS011;33780;51.034;7.120;2022-07-29T11:31:39;3.72;;;1.95;;
48014;SDS011;33780;51.034;7.120;2022-07-29T11:34:19;7.93;;;1.70;;
48014;SDS011;33780;51.034;7.120;2022-07-29T11:39:31;5.55;;;1.85;;
48014;SDS011;33780;51.034;7.120;2022-07-29T11:47:25;3.33;;;1.42;;
48014;SDS011;33780;51.034;7.120;2022-07-29T11:49:53;2.92;;;1.80;;
48014;SDS011;33780;51.034;7.120;2022-07-29T11:52:19;3.55;;;1.95;;
48014;SDS011;33780;51.034;7.120;2022-07-29T11:54:47;5.55;;;1.98;;
48014;SDS011;33780;51.034;7.120;2022-07-29T11:57:14;3.15;;;1.80;;
48014;SDS011;33780;51.034;7.120;2022-07-29T11:59:43;3.95;;;1.73;;
48014;SDS011;33780;51.034;7.120;2022-07-29T12:02:10;4.43;;;1.75;;
48014;SDS011;33780;51.034;7.120;2022-07-29T12:04:55;8.25;;;1.60;;
48014;SDS011;33780;51.034;7.120;2022-07-29T12:07:28;4.35;;;1.80;;
48014;SDS011;33780;51.034;7.120;2022-07-29T12:09:57;3.90;;;1.95;;
48014;SDS011;33780;51.034;7.120;2022-07-29T12:12:23;4.35;;;1.77;;
48014;SDS011;33780;51.034;7.120;2022-07-29T12:14:48;3.92;;;1.40;;
48014;SDS011;33780;51.034;7.120;2022-07-29T12:22:27;2.70;;;1.58;;
48014;SDS011;33780;51.034;7.120;2022-07-29T12:24:53;3.60;;;1.63;;
48014;SDS011;33780;51.034;7.120;2022-07-29T12:27:20;4.40;;;1.90;;
48014;SDS011;33780;51.034;7.120;2022-07-29T12:29:54;3.70;;;1.70;;
48014;SDS011;33780;51.034;7.120;2022-07-29T12:32:21;2.58;;;1.40;;
48014;SDS011;33780;51.034;7.120;2022-07-29T12:34:46;4.20;;;1.60;;
48014;SDS011;33780;51.034;7.120;2022-07-29T12:37:12;6.75;;;1.80;;
48014;SDS011;33780;51.034;7.120;2022-07-29T12:39:37;3.55;;;1.50;;
48014;SDS011;33780;51.034;7.120;2022-07-29T12:42:10;5.13;;;1.30;;
48014;SDS011;33780;51.034;7.120;2022-07-29T12:44:44;3.97;;;1.55;;
48014;SDS011;33780;51.034;7.120;2022-07-29T12:47:13;3.55;;;1.42;;
48014;SDS011;33780;51.034;7.120;2022-07-29T12:49:39;6.40;;;1.33;;
48014;SDS011;33780;51.034;7.120;2022-07-29T12:52:23;3.88;;;1.67;;
48014;SDS011;33780;51.034;7.120;2022-07-29T12:54:55;2.55;;;1.40;;
48014;SDS011;33780;51.034;7.120;2022-07-29T12:57:20;3.35;;;1.70;;
48014;SDS011;33780;51.034;7.120;2022-07-29T12:59:58;3.75;;;1.33;;
48014;SDS011;33780;51.034;7.120;2022-07-29T13:02:35;4.97;;;1.50;;
48014;SDS011;33780;51.034;7.120;2022-07-29T13:05:02;2.97;;;1.60;;
48014;SDS011;33780;51.034;7.120;2022-07-29T13:07:31;1.92;;;1.38;;
48014;SDS011;33780;51.034;7.120;2022-07-29T13:15:33;1.90;;;1.30;;
48014;SDS011;33780;51.034;7.120;2022-07-29T13:17:59;2.00;;;1.10;;
48014;SDS011;33780;51.034;7.120;2022-07-29T13:20:25;3.55;;;1.50;;
48014;SDS011;33780;51.034;7.120;2022-07-29T13:22:55;3.00;;;1.45;;
48014;SDS011;33780;51.034;7.120;2022-07-29T13:25:28;3.60;;;1.48;;
48014;SDS011;33780;51.034;7.120;2022-07-29T13:27:55;3.33;;;1.50;;
48014;SDS011;33780;51.034;7.120;2022-07-29T13:30:21;2.28;;;1.30;;
48014;SDS011;33780;51.034;7.120;2022-07-29T13:32:47;2.67;;;1.50;;
48014;SDS011;33780;51.034;7.120;2022-07-29T13:35:12;2.90;;;1.27;;
48014;SDS011;33780;51.034;7.120;2022-07-29T13:37:38;3.75;;;1.58;;
48014;SDS011;33780;51.034;7.120;2022-07-29T13:40:04;2.35;;;1.35;;
48014;SDS011;33780;51.034;7.120;2022-07-29T13:42:31;4.47;;;1.70;;
48014;SDS011;33780;51.034;7.120;2022-07-29T13:44:57;3.70;;;1.42;;
48014;SDS011;33780;51.034;7.120;2022-07-29T13:47:23;2.88;;;1.42;;
48014;SDS011;33780;51.034;7.120;2022-07-29T13:49:49;2.20;;;1.30;;
48014;SDS011;33780;51.034;7.120;2022-07-29T13:52:14;2.55;;;1.20;;
48014;SDS011;33780;51.034;7.120;2022-07-29T13:54:40;3.13;;;1.40;;
48014;SDS011;33780;51.034;7.120;2022-07-29T13:57:06;2.33;;;1.40;;
48014;SDS011;33780;51.034;7.120;2022-07-29T13:59:31;5.70;;;1.65;;
48014;SDS011;33780;51.034;7.120;2022-07-29T14:01:57;2.95;;;1.48;;
48014;SDS011;33780;51.034;7.120;2022-07-29T14:04:22;3.67;;;1.30;;
48014;SDS011;33780;51.034;7.120;2022-07-29T14:06:50;6.97;;;1.50;;
48014;SDS011;33780;51.034;7.120;2022-07-29T14:09:16;2.47;;;1.50;;
48014;SDS011;33780;51.034;7.120;2022-07-29T14:11:42;2.60;;;1.33;;
48014;SDS011;33780;51.034;7.120;2022-07-29T14:14:07;6.20;;;1.30;;
48014;SDS011;33780;51.034;7.120;2022-07-29T14:16:33;3.47;;;1.33;;
48014;SDS011;33780;51.034;7.120;2022-07-29T14:18:58;3.20;;;1.60;;
48014;SDS011;33780;51.034;7.120;2022-07-29T14:21:24;3.60;;;1.27;;
48014;SDS011;33780;51.034;7.120;2022-07-29T14:23:49;3.28;;;1.45;;
48014;SDS011;33780;51.034;7.120;2022-07-29T14:26:14;4.03;;;1.85;;
48014;SDS011;33780;51.034;7.120;2022-07-29T14:28:40;3.13;;;1.58;;
48014;SDS011;33780;51.034;7.120;2022-07-29T14:31:05;3.78;;;1.50;;
48014;SDS011;33780;51.034;7.120;2022-07-29T14:33:30;11.40;;;3.47;;
48014;SDS011;33780;51.034;7.120;2022-07-29T14:35:55;4.65;;;1.83;;
48014;SDS011;33780;51.034;7.120;2022-07-29T14:38:21;5.68;;;2.50;;
48014;SDS011;33780;51.034;7.120;2022-07-29T14:40:46;5.55;;;1.75;;
48014;SDS011;33780;51.034;7.120;2022-07-29T14:43:12;3.58;;;1.50;;
48014;SDS011;33780;51.034;7.120;2022-07-29T14:45:38;2.85;;;1.95;;
48014;SDS011;33780;51.034;7.120;2022-07-29T14:48:04;3.78;;;2.17;;
48014;SDS011;33780;51.034;7.120;2022-07-29T14:50:29;2.95;;;1.48;;
48014;SDS011;33780;51.034;7.120;2022-07-29T14:52:54;6.15;;;2.00;;
48014;SDS011;33780;51.034;7.120;2022-07-29T14:55:20;3.45;;;1.50;;
48014;SDS011;33780;51.034;7.120;2022-07-29T14:57:45;3.30;;;1.50;;
48014;SDS011;33780;51.034;7.120;2022-07-29T15:00:12;3.25;;;1.83;;
48014;SDS011;33780;51.034;7.120;2022-07-29T15:02:37;3.72;;;1.80;;
48014;SDS011;33780;51.034;7.120;2022-07-29T15:05:03;2.60;;;1.58;;
48014;SDS011;33780;51.034;7.120;2022-07-29T15:07:28;4.15;;;1.88;;
48014;SDS011;33780;51.034;7.120;2022-07-29T15:09:54;4.00;;;1.40;;
48014;SDS011;33780;51.034;7.120;2022-07-29T15:12:19;2.70;;;1.58;;
48014;SDS011;33780;51.034;7.120;2022-07-29T15:14:44;3.90;;;1.38;;
48014;SDS011;33780;51.034;7.120;2022-07-29T15:17:10;5.05;;;1.63;;
48014;SDS011;33780;51.034;7.120;2022-07-29T15:19:35;2.65;;;1.40;;
48014;SDS011;33780;51.034;7.120;2022-07-29T15:22:00;5.65;;;1.60;;
48014;SDS011;33780;51.034;7.120;2022-07-29T15:24:26;3.03;;;1.60;;
48014;SDS011;33780;51.034;7.120;2022-07-29T15:26:51;2.38;;;1.38;;
48014;SDS011;33780;51.034;7.120;2022-07-29T15:29:17;3.17;;;1.60;;
48014;SDS011;33780;51.034;7.120;2022-07-29T15:31:42;3.15;;;1.63;;
48014;SDS011;33780;51.034;7.120;2022-07-29T15:34:08;6.35;;;1.42;;
48014;SDS011;33780;51.034;7.120;2022-07-29T15:36:34;3.13;;;1.65;;
48014;SDS011;33780;51.034;7.120;2022-07-29T15:38:59;5.07;;;1.85;;
48014;SDS011;33780;51.034;7.120;2022-07-29T15:41:25;2.25;;;1.30;;
48014;SDS011;33780;51.034;7.120;2022-07-29T15:43:50;3.13;;;1.65;;
48014;SDS011;33780;51.034;7.120;2022-07-29T15:46:16;2.88;;;1.50;;
48014;SDS011;33780;51.034;7.120;2022-07-29T15:49:02;4.35;;;1.67;;
48014;SDS011;33780;51.034;7.120;2022-07-29T15:51:29;3.00;;;1.30;;
48014;SDS011;33780;51.034;7.120;2022-07-29T15:53:54;3.35;;;1.50;;
48014;SDS011;33780;51.034;7.120;2022-07-29T15:56:20;2.95;;;1.55;;